createdAt,value
2023-01-21T00:00:31.489Z,74.57
2023-01-21T00:01:32.975Z,74.39
2023-01-21T00:02:34.575Z,74.90
2023-01-21T00:03:36.266Z,75.07
2023-01-21T00:04:40.944Z,74.67
2023-01-21T00:05:42.452Z,74.94
2023-01-21T00:06:43.931Z,74.52
2023-01-21T00:07:45.595Z,74.90
2023-01-21T00:08:47.109Z,74.90
2023-01-21T00:09:48.565Z,75.06
2023-01-21T00:10:50.069Z,74.99
2023-01-21T00:11:51.573Z,75.06
2023-01-21T00:12:53.079Z,74.94
2023-01-21T00:13:54.562Z,74.88
2023-01-21T00:14:56.066Z,75.25
2023-01-21T00:15:57.661Z,75.37
2023-01-21T00:16:59.210Z,74.85
2023-01-21T00:18:00.703Z,75.07
2023-01-21T00:19:02.218Z,74.85
2023-01-21T00:20:03.994Z,75.05
2023-01-21T00:21:05.573Z,75.17
2023-01-21T00:22:07.091Z,75.22
2023-01-21T00:23:10.892Z,75.17
2023-01-21T00:24:12.402Z,75.13
2023-01-21T00:25:13.927Z,74.91
2023-01-21T00:26:15.444Z,74.51
2023-01-21T00:27:16.943Z,74.74
2023-01-21T00:28:18.924Z,74.65
2023-01-21T00:29:21.520Z,74.71
2023-01-21T00:30:23.038Z,74.67
2023-01-21T00:31:25.259Z,74.86
2023-01-21T00:32:27.096Z,74.49
2023-01-21T00:33:28.812Z,74.58
2023-01-21T00:34:30.321Z,73.88
2023-01-21T00:35:32.017Z,74.12
2023-01-21T00:36:33.584Z,74.25
2023-01-21T00:37:35.076Z,74.44
2023-01-21T00:38:36.656Z,74.30
2023-01-21T00:39:42.743Z,74.41
2023-01-21T00:40:44.234Z,73.93
2023-01-21T00:41:45.765Z,74.16
2023-01-21T00:42:47.290Z,74.47
2023-01-21T00:43:48.864Z,74.34
2023-01-21T00:44:50.373Z,74.45
2023-01-21T00:45:51.897Z,74.48
2023-01-21T00:46:53.394Z,74.26
2023-01-21T00:47:54.960Z,74.02
2023-01-21T00:48:56.467Z,74.08
2023-01-21T00:49:57.946Z,74.09
2023-01-21T00:51:00.874Z,73.91
2023-01-21T00:52:02.493Z,74.24
2023-01-21T00:53:03.988Z,74.22
2023-01-21T00:54:05.557Z,73.88
2023-01-21T00:55:07.155Z,73.76
2023-01-21T00:56:09.667Z,73.58
2023-01-21T00:57:11.417Z,73.87
2023-01-21T00:58:12.937Z,73.97
2023-01-21T00:59:14.590Z,73.87
2023-01-21T01:00:16.957Z,73.93
2023-01-21T01:01:19.431Z,73.97
2023-01-21T01:02:20.974Z,74.01
2023-01-21T01:03:24.857Z,74.10
2023-01-21T01:04:26.396Z,74.10
2023-01-21T01:05:27.948Z,74.10
2023-01-21T01:06:29.475Z,73.85
2023-01-21T01:07:31.005Z,73.68
2023-01-21T01:08:32.509Z,73.89
2023-01-21T01:09:34.091Z,73.97
2023-01-21T01:10:37.037Z,73.88
2023-01-21T01:11:38.744Z,73.70
2023-01-21T01:12:40.312Z,74.20
2023-01-21T01:13:41.841Z,74.10
2023-01-21T01:14:43.441Z,73.83
2023-01-21T01:15:45.055Z,73.78
2023-01-21T01:16:46.559Z,74.12
2023-01-21T01:17:48.015Z,73.81
2023-01-21T01:18:49.525Z,73.79
2023-01-21T01:19:51.246Z,73.66
2023-01-21T01:20:52.762Z,73.63
2023-01-21T01:21:54.271Z,73.47
2023-01-21T01:22:55.830Z,73.35
2023-01-21T01:24:00.646Z,73.40
2023-01-21T01:25:02.205Z,73.07
2023-01-21T01:26:04.809Z,73.04
2023-01-21T01:27:06.302Z,73.09
2023-01-21T01:28:08.033Z,73.24
2023-01-21T01:29:10.461Z,73.20
2023-01-21T01:30:12.215Z,73.34
2023-01-21T01:31:14.844Z,73.21
2023-01-21T01:32:16.439Z,73.48
2023-01-21T01:33:19.272Z,73.24
2023-01-21T01:34:20.759Z,73.36
2023-01-21T01:35:22.405Z,73.65
2023-01-21T01:36:23.909Z,73.82
2023-01-21T01:37:25.458Z,73.57
2023-01-21T01:38:26.974Z,73.69
2023-01-21T01:39:28.465Z,73.45
2023-01-21T01:40:32.522Z,73.44
2023-01-21T01:41:35.327Z,73.36
2023-01-21T01:42:36.855Z,73.23
2023-01-21T01:43:58.099Z,73.37
2023-01-21T01:44:59.637Z,73.41
2023-01-21T01:46:01.099Z,73.49
2023-01-21T01:47:02.610Z,73.32
2023-01-21T01:48:06.322Z,73.39
2023-01-21T01:49:13.123Z,73.66
2023-01-21T01:50:15.395Z,73.61
2023-01-21T01:51:17.634Z,73.63
2023-01-21T01:52:19.398Z,73.41
2023-01-21T01:53:20.978Z,73.36
2023-01-21T01:54:29.855Z,73.61
2023-01-21T01:55:32.401Z,73.41
2023-01-21T01:56:33.864Z,73.51
2023-01-21T01:57:36.127Z,73.46
2023-01-21T01:58:37.787Z,73.63
2023-01-21T01:59:39.343Z,73.64
2023-01-21T02:00:40.842Z,73.53
2023-01-21T02:01:42.365Z,73.99
2023-01-21T02:02:44.021Z,73.91
2023-01-21T02:03:46.260Z,73.95
2023-01-21T02:04:51.522Z,73.65
2023-01-21T02:05:53.255Z,73.71
2023-01-21T02:06:54.748Z,73.62
2023-01-21T02:07:56.299Z,73.61
2023-01-21T02:08:57.884Z,73.56
2023-01-21T02:09:59.379Z,73.60
2023-01-21T02:11:02.641Z,73.46
2023-01-21T02:12:04.403Z,73.74
2023-01-21T02:13:06.006Z,73.40
2023-01-21T02:14:07.489Z,73.52
2023-01-21T02:15:09.170Z,73.29
2023-01-21T02:16:10.779Z,73.52
2023-01-21T02:17:12.285Z,73.77
2023-01-21T02:18:32.793Z,73.69
2023-01-21T02:19:47.028Z,73.63
2023-01-21T02:21:03.428Z,73.43
2023-01-21T02:22:07.675Z,73.36
2023-01-21T02:23:27.957Z,73.47
2023-01-21T02:24:55.009Z,73.44
2023-01-21T02:26:15.044Z,73.35
2023-01-21T02:27:30.975Z,73.29
2023-01-21T02:28:51.104Z,73.24
2023-01-21T02:30:07.722Z,73.20
2023-01-21T02:31:15.316Z,73.22
2023-01-21T02:32:21.917Z,73.16
2023-01-21T02:33:34.637Z,73.03
2023-01-21T02:34:38.771Z,72.92
2023-01-21T02:35:45.721Z,73.34
2023-01-21T02:36:56.073Z,73.08
2023-01-21T02:37:57.544Z,72.75
2023-01-21T02:39:17.501Z,73.22
2023-01-21T02:40:37.758Z,73.19
2023-01-21T02:41:57.947Z,73.22
2023-01-21T02:43:11.736Z,73.15
2023-01-21T02:44:19.141Z,73.29
2023-01-21T02:45:33.451Z,73.27
2023-01-21T02:46:35.038Z,73.24
2023-01-21T02:47:39.544Z,72.99
2023-01-21T02:49:10.287Z,73.26
2023-01-21T02:50:16.244Z,73.24
2023-01-21T02:51:20.694Z,72.93
2023-01-21T02:52:22.925Z,73.07
2023-01-21T02:53:24.604Z,72.81
2023-01-21T02:54:41.006Z,72.83
2023-01-21T02:55:43.565Z,72.57
2023-01-21T02:56:45.202Z,72.57
2023-01-21T02:57:50.327Z,72.38
2023-01-21T02:59:01.074Z,72.36
2023-01-21T03:00:03.717Z,72.64
2023-01-21T03:01:07.799Z,72.56
2023-01-21T03:02:13.505Z,72.42
2023-01-21T03:03:26.946Z,72.71
2023-01-21T03:04:31.892Z,72.44
2023-01-21T03:05:44.022Z,72.37
2023-01-21T03:06:56.210Z,72.24
2023-01-21T03:08:07.687Z,72.25
2023-01-21T03:09:18.110Z,72.32
2023-01-21T03:10:24.605Z,72.06
2023-01-21T03:11:26.078Z,72.43
2023-01-21T03:12:33.392Z,72.45
2023-01-21T03:13:53.960Z,71.99
2023-01-21T03:15:20.763Z,71.87
2023-01-21T03:16:42.660Z,72.07
2023-01-21T03:17:44.929Z,72.12
2023-01-21T03:18:46.442Z,71.99
2023-01-21T03:20:02.509Z,71.67
2023-01-21T03:21:05.530Z,71.89
2023-01-21T03:22:08.734Z,72.09
2023-01-21T03:23:14.730Z,71.70
2023-01-21T03:24:16.279Z,72.08
2023-01-21T03:25:17.786Z,71.76
2023-01-21T03:26:20.882Z,71.58
2023-01-21T03:27:24.909Z,71.80
2023-01-21T03:28:26.863Z,71.67
2023-01-21T03:29:28.805Z,71.69
2023-01-21T03:30:30.347Z,71.69
2023-01-21T03:31:32.673Z,71.80
2023-01-21T03:32:34.193Z,71.71
2023-01-21T03:33:36.460Z,71.67
2023-01-21T03:34:39.621Z,71.37
2023-01-21T03:35:43.550Z,71.56
2023-01-21T03:36:54.941Z,71.65
2023-01-21T03:38:09.936Z,71.45
2023-01-21T03:39:14.827Z,71.65
2023-01-21T03:40:19.911Z,71.46
2023-01-21T03:41:22.002Z,71.70
2023-01-21T03:42:23.695Z,71.64
2023-01-21T03:43:25.186Z,71.26
2023-01-21T03:44:26.657Z,71.69
2023-01-21T03:45:31.617Z,71.52
2023-01-21T03:46:41.888Z,71.61
2023-01-21T03:47:43.627Z,71.52
2023-01-21T03:48:52.955Z,71.72
2023-01-21T03:49:58.784Z,71.37
2023-01-21T03:51:02.661Z,71.35
2023-01-21T03:52:04.335Z,71.31
2023-01-21T03:53:06.208Z,71.35
2023-01-21T03:54:07.726Z,71.23
2023-01-21T03:55:09.592Z,71.33
2023-01-21T03:56:11.184Z,70.92
2023-01-21T03:57:12.672Z,71.15
2023-01-21T03:58:14.177Z,70.96
2023-01-21T03:59:15.693Z,71.07
2023-01-21T04:00:17.736Z,70.85
2023-01-21T04:01:19.432Z,70.78
2023-01-21T04:02:21.254Z,70.66
2023-01-21T04:03:22.779Z,70.79
2023-01-21T04:04:24.302Z,71.07
2023-01-21T04:05:25.795Z,70.89
2023-01-21T04:06:27.313Z,70.82
2023-01-21T04:07:28.843Z,70.78
2023-01-21T04:08:30.340Z,70.79
2023-01-21T04:09:31.826Z,70.96
2023-01-21T04:10:33.449Z,70.84
2023-01-21T04:11:35.077Z,70.95
2023-01-21T04:12:36.617Z,70.80
2023-01-21T04:13:38.119Z,70.44
2023-01-21T04:14:39.637Z,70.39
2023-01-21T04:15:41.128Z,70.03
2023-01-21T04:16:42.804Z,70.44
2023-01-21T04:17:44.396Z,70.45
2023-01-21T04:18:47.602Z,70.62
2023-01-21T04:19:49.147Z,70.51
2023-01-21T04:20:50.665Z,70.57
2023-01-21T04:21:52.204Z,70.58
2023-01-21T04:22:53.767Z,70.40
2023-01-21T04:23:55.371Z,70.24
2023-01-21T04:24:56.869Z,70.18
2023-01-21T04:25:58.365Z,70.06
2023-01-21T04:26:59.933Z,69.95
2023-01-21T04:28:01.706Z,69.85
2023-01-21T04:29:03.304Z,70.10
2023-01-21T04:30:05.075Z,70.03
2023-01-21T04:31:06.609Z,69.75
2023-01-21T04:32:08.281Z,69.42
2023-01-21T04:33:09.802Z,69.37
2023-01-21T04:34:11.328Z,69.29
2023-01-21T04:35:12.829Z,69.20
2023-01-21T04:36:14.306Z,69.18
2023-01-21T04:37:15.950Z,69.31
2023-01-21T04:38:17.607Z,69.36
2023-01-21T04:39:19.373Z,68.76
2023-01-21T04:40:21.020Z,68.87
2023-01-21T04:41:25.175Z,68.97
2023-01-21T04:42:26.963Z,68.81
2023-01-21T04:43:28.481Z,68.36
2023-01-21T04:44:29.959Z,68.02
2023-01-21T04:45:31.473Z,67.80
2023-01-21T04:46:32.987Z,67.79
2023-01-21T04:47:34.495Z,67.57
2023-01-21T04:48:36.117Z,67.36
2023-01-21T04:49:37.661Z,67.15
2023-01-21T04:50:39.201Z,67.30
2023-01-21T04:51:40.673Z,66.94
2023-01-21T04:52:42.243Z,67.07
2023-01-21T04:53:43.809Z,67.25
2023-01-21T04:54:45.338Z,67.29
2023-01-21T04:55:46.879Z,66.84
2023-01-21T04:56:48.343Z,67.00
2023-01-21T04:57:49.831Z,66.91
2023-01-21T04:58:51.324Z,67.01
2023-01-21T04:59:52.867Z,67.22
2023-01-21T05:00:54.728Z,66.69
2023-01-21T05:01:56.438Z,66.72
2023-01-21T05:02:57.982Z,66.58
2023-01-21T05:03:59.495Z,66.54
2023-01-21T05:05:01.019Z,66.74
2023-01-21T05:06:02.542Z,66.86
2023-01-21T05:07:03.994Z,66.49
2023-01-21T05:08:05.581Z,66.73
2023-01-21T05:09:07.188Z,66.37
2023-01-21T05:10:09.847Z,66.68
2023-01-21T05:11:11.666Z,66.46
2023-01-21T05:12:13.244Z,66.58
2023-01-21T05:13:14.773Z,66.81
2023-01-21T05:14:16.270Z,66.90
2023-01-21T05:15:17.782Z,66.65
2023-01-21T05:16:19.369Z,66.35
2023-01-21T05:17:21.121Z,66.16
2023-01-21T05:18:22.623Z,66.23
2023-01-21T05:19:24.142Z,66.41
2023-01-21T05:20:25.835Z,66.30
2023-01-21T05:21:27.358Z,66.52
2023-01-21T05:22:28.863Z,66.58
2023-01-21T05:23:30.767Z,66.52
2023-01-21T05:24:32.301Z,66.00
2023-01-21T05:25:33.861Z,66.18
2023-01-21T05:26:35.421Z,66.14
2023-01-21T05:27:37.010Z,66.40
2023-01-21T05:28:38.562Z,65.92
2023-01-21T05:29:40.161Z,66.00
2023-01-21T05:30:44.364Z,65.99
2023-01-21T05:31:46.241Z,66.17
2023-01-21T05:32:51.742Z,65.81
2023-01-21T05:33:53.262Z,65.96
2023-01-21T05:34:54.776Z,66.18
2023-01-21T05:35:56.261Z,65.73
2023-01-21T05:36:57.742Z,65.75
2023-01-21T05:38:00.448Z,65.75
2023-01-21T05:39:02.147Z,66.01
2023-01-21T05:40:03.874Z,66.04
2023-01-21T05:41:05.695Z,65.54
2023-01-21T05:42:07.239Z,65.30
2023-01-21T05:43:08.731Z,65.67
2023-01-21T05:44:10.287Z,65.39
2023-01-21T05:45:11.923Z,65.49
2023-01-21T05:46:13.537Z,65.29
2023-01-21T05:47:15.073Z,64.81
2023-01-21T05:48:16.600Z,65.36
2023-01-21T05:49:18.324Z,65.42
2023-01-21T05:50:19.894Z,64.63
2023-01-21T05:51:21.482Z,65.06
2023-01-21T05:52:23.057Z,64.87
2023-01-21T05:53:24.860Z,64.77
2023-01-21T05:54:26.403Z,64.80
2023-01-21T05:55:27.900Z,65.01
2023-01-21T05:56:29.446Z,64.67
2023-01-21T05:57:31.114Z,64.67
2023-01-21T05:58:32.767Z,64.56
2023-01-21T05:59:34.957Z,64.39
2023-01-21T06:00:37.405Z,64.51
2023-01-21T06:01:40.767Z,64.78
2023-01-21T06:02:42.963Z,64.28
2023-01-21T06:03:44.913Z,64.76
2023-01-21T06:04:46.395Z,64.49
2023-01-21T06:05:48.356Z,64.31
2023-01-21T06:06:49.819Z,64.56
2023-01-21T06:07:51.333Z,63.91
2023-01-21T06:08:52.858Z,64.43
2023-01-21T06:09:54.371Z,64.07
2023-01-21T06:10:56.378Z,64.05
2023-01-21T06:11:57.920Z,63.52
2023-01-21T06:12:59.393Z,63.99
2023-01-21T06:14:00.860Z,63.55
2023-01-21T06:15:02.409Z,63.93
2023-01-21T06:16:04.076Z,63.72
2023-01-21T06:17:05.600Z,64.28
2023-01-21T06:18:07.171Z,63.66
2023-01-21T06:19:08.822Z,63.47
2023-01-21T06:20:10.587Z,63.91
2023-01-21T06:21:12.052Z,63.94
2023-01-21T06:22:14.746Z,63.57
2023-01-21T06:23:16.245Z,63.42
2023-01-21T06:24:17.821Z,63.57
2023-01-21T06:25:19.350Z,64.15
2023-01-21T06:26:20.800Z,64.40
2023-01-21T06:27:22.295Z,63.89
2023-01-21T06:28:23.780Z,64.12
2023-01-21T06:29:25.281Z,63.94
2023-01-21T06:30:26.818Z,64.37
2023-01-21T06:31:28.401Z,63.80
2023-01-21T06:32:29.940Z,64.30
2023-01-21T06:33:31.428Z,63.87
2023-01-21T06:34:32.927Z,64.40
2023-01-21T06:35:34.437Z,64.17
2023-01-21T06:36:36.397Z,63.90
2023-01-21T06:37:37.908Z,63.96
2023-01-21T06:38:39.461Z,63.76
2023-01-21T06:39:41.388Z,64.27
2023-01-21T06:40:43.212Z,64.63
2023-01-21T06:41:44.916Z,64.66
2023-01-21T06:42:46.953Z,64.46
2023-01-21T06:43:48.424Z,63.98
2023-01-21T06:44:49.875Z,63.82
2023-01-21T06:45:51.534Z,63.50
2023-01-21T06:47:00.774Z,63.48
2023-01-21T06:48:02.567Z,63.53
2023-01-21T06:49:04.070Z,63.84
2023-01-21T06:50:05.800Z,63.40
2023-01-21T06:51:07.339Z,63.90
2023-01-21T06:52:08.921Z,63.57
2023-01-21T06:53:10.423Z,64.16
2023-01-21T06:54:11.941Z,64.13
2023-01-21T06:55:13.703Z,63.92
2023-01-21T06:56:15.162Z,63.30
2023-01-21T06:57:16.756Z,64.05
2023-01-21T06:58:18.308Z,63.37
2023-01-21T06:59:19.768Z,63.51
2023-01-21T07:00:21.573Z,63.78
2023-01-21T07:01:23.124Z,64.03
2023-01-21T07:02:24.662Z,64.07
2023-01-21T07:03:26.157Z,64.19
2023-01-21T07:04:27.718Z,63.43
2023-01-21T07:05:29.274Z,63.82
2023-01-21T07:06:30.791Z,63.88
2023-01-21T07:07:32.319Z,63.44
2023-01-21T07:08:33.857Z,63.53
2023-01-21T07:09:35.373Z,63.63
2023-01-21T07:10:36.840Z,63.50
2023-01-21T07:11:38.380Z,63.54
2023-01-21T07:12:39.928Z,63.43
2023-01-21T07:13:41.400Z,63.19
2023-01-21T07:14:42.949Z,63.53
2023-01-21T07:15:44.443Z,63.37
2023-01-21T07:16:45.936Z,63.40
2023-01-21T07:17:47.474Z,63.14
2023-01-21T07:18:48.935Z,63.10
2023-01-21T07:19:50.473Z,62.85
2023-01-21T07:20:51.977Z,63.24
2023-01-21T07:21:53.544Z,63.02
2023-01-21T07:22:55.028Z,62.93
2023-01-21T07:23:56.665Z,63.14
2023-01-21T07:24:58.169Z,62.97
2023-01-21T07:25:59.668Z,63.05
2023-01-21T07:27:01.145Z,62.86
2023-01-21T07:28:02.667Z,62.80
2023-01-21T07:29:04.876Z,62.81
2023-01-21T07:30:06.729Z,62.88
2023-01-21T07:31:08.814Z,62.99
2023-01-21T07:32:10.391Z,62.54
2023-01-21T07:33:11.906Z,62.82
2023-01-21T07:34:13.454Z,62.95
2023-01-21T07:35:15.325Z,62.58
2023-01-21T07:36:17.159Z,62.64
2023-01-21T07:37:18.647Z,62.75
2023-01-21T07:38:20.183Z,63.03
2023-01-21T07:39:21.733Z,62.90
2023-01-21T07:40:23.258Z,63.06
2023-01-21T07:41:24.880Z,62.96
2023-01-21T07:42:26.439Z,63.10
2023-01-21T07:43:28.218Z,63.11
2023-01-21T07:44:29.721Z,62.57
2023-01-21T07:45:31.265Z,62.73
2023-01-21T07:46:33.305Z,62.97
2023-01-21T07:47:34.852Z,63.33
2023-01-21T07:48:36.431Z,62.48
2023-01-21T07:49:38.038Z,62.53
2023-01-21T07:50:39.608Z,62.79
2023-01-21T07:51:41.093Z,62.72
2023-01-21T07:52:42.675Z,62.63
2023-01-21T07:53:44.380Z,62.55
2023-01-21T07:54:46.771Z,62.31
2023-01-21T07:55:48.307Z,62.37
2023-01-21T07:56:49.806Z,61.83
2023-01-21T07:57:51.349Z,62.48
2023-01-21T07:58:52.853Z,62.54
2023-01-21T07:59:54.540Z,62.33
2023-01-21T08:00:56.019Z,62.84
2023-01-21T08:01:58.044Z,62.32
2023-01-21T08:02:59.747Z,62.71
2023-01-21T08:04:01.303Z,62.50
2023-01-21T08:05:02.849Z,62.12
2023-01-21T08:06:04.760Z,62.59
2023-01-21T08:07:11.908Z,61.98
2023-01-21T08:08:14.542Z,62.59
2023-01-21T08:09:16.047Z,62.60
2023-01-21T08:10:17.877Z,62.15
2023-01-21T08:11:19.393Z,62.21
2023-01-21T08:12:20.903Z,62.01
2023-01-21T08:13:22.586Z,61.98
2023-01-21T08:14:24.048Z,62.43
2023-01-21T08:15:25.623Z,61.82
2023-01-21T08:16:27.160Z,62.34
2023-01-21T08:17:28.664Z,61.85
2023-01-21T08:18:30.184Z,62.34
2023-01-21T08:19:31.685Z,62.61
2023-01-21T08:20:33.180Z,62.42
2023-01-21T08:21:34.711Z,62.23
2023-01-21T08:22:36.354Z,62.15
2023-01-21T08:23:37.900Z,62.62
2023-01-21T08:24:39.439Z,62.96
2023-01-21T08:25:41.741Z,62.50
2023-01-21T08:26:43.255Z,62.46
2023-01-21T08:27:44.877Z,62.76
2023-01-21T08:28:46.428Z,62.59
2023-01-21T08:29:48.559Z,62.15
2023-01-21T08:30:50.213Z,62.61
2023-01-21T08:31:52.454Z,62.58
2023-01-21T08:32:54.026Z,62.72
2023-01-21T08:33:55.760Z,62.29
2023-01-21T08:34:57.387Z,62.57
2023-01-21T08:35:59.504Z,62.48
2023-01-21T08:37:01.324Z,62.44
2023-01-21T08:38:02.827Z,61.70
2023-01-21T08:39:06.332Z,62.08
2023-01-21T08:40:10.180Z,62.15
2023-01-21T08:41:11.734Z,62.54
2023-01-21T08:42:13.231Z,61.96
2023-01-21T08:43:14.744Z,62.12
2023-01-21T08:44:16.265Z,62.37
2023-01-21T08:45:18.008Z,62.06
2023-01-21T08:46:19.902Z,62.01
2023-01-21T08:47:21.435Z,61.90
2023-01-21T08:48:22.897Z,62.30
2023-01-21T08:49:24.495Z,62.38
2023-01-21T08:50:26.099Z,62.20
2023-01-21T08:51:27.604Z,61.80
2023-01-21T08:52:29.097Z,62.42
2023-01-21T08:53:30.650Z,62.41
2023-01-21T08:54:32.173Z,62.44
2023-01-21T08:55:33.691Z,62.20
2023-01-21T08:56:35.271Z,62.17
2023-01-21T08:57:36.777Z,62.65
2023-01-21T08:58:38.320Z,62.56
2023-01-21T08:59:39.869Z,62.13
2023-01-21T09:00:41.945Z,61.94
2023-01-21T09:01:43.642Z,61.97
2023-01-21T09:02:45.115Z,62.03
2023-01-21T09:03:46.582Z,61.73
2023-01-21T09:04:50.483Z,62.00
2023-01-21T09:05:52.132Z,61.37
2023-01-21T09:06:53.643Z,61.24
2023-01-21T09:07:57.893Z,61.45
2023-01-21T09:08:59.605Z,61.66
2023-01-21T09:10:01.170Z,61.49
2023-01-21T09:11:03.150Z,61.24
2023-01-21T09:12:07.577Z,61.49
2023-01-21T09:13:09.290Z,60.70
2023-01-21T09:14:10.800Z,61.25
2023-01-21T09:15:12.325Z,60.88
2023-01-21T09:16:13.837Z,60.99
2023-01-21T09:17:15.455Z,60.50
2023-01-21T09:18:16.986Z,60.16
2023-01-21T09:19:18.519Z,60.11
2023-01-21T09:20:20.139Z,60.27
2023-01-21T09:21:21.653Z,60.21
2023-01-21T09:22:23.129Z,60.01
2023-01-21T09:23:24.969Z,59.99
2023-01-21T09:24:26.633Z,60.17
2023-01-21T09:25:28.117Z,60.00
2023-01-21T09:26:29.739Z,60.38
2023-01-21T09:27:31.223Z,60.21
2023-01-21T09:28:38.815Z,59.84
2023-01-21T09:29:41.560Z,59.96
2023-01-21T09:30:43.060Z,60.13
2023-01-21T09:31:44.584Z,60.42
2023-01-21T09:32:46.137Z,60.55
2023-01-21T09:33:48.527Z,60.88
2023-01-21T09:34:50.021Z,60.88
2023-01-21T09:35:54.760Z,60.53
2023-01-21T09:36:56.250Z,60.48
2023-01-21T09:37:57.708Z,60.48
2023-01-21T09:38:59.399Z,60.43
2023-01-21T09:40:01.183Z,59.69
2023-01-21T09:41:04.722Z,59.88
2023-01-21T09:42:13.680Z,60.01
2023-01-21T09:43:17.877Z,59.82
2023-01-21T09:44:19.309Z,60.32
2023-01-21T09:45:20.795Z,60.33
2023-01-21T09:46:40.810Z,60.03
2023-01-21T09:47:42.530Z,59.86
2023-01-21T09:48:44.612Z,60.04
2023-01-21T09:49:46.076Z,60.08
2023-01-21T09:50:47.621Z,60.07
2023-01-21T09:51:52.701Z,59.88
2023-01-21T09:52:55.211Z,60.14
2023-01-21T09:53:57.100Z,59.88
2023-01-21T09:54:58.729Z,60.37
2023-01-21T09:56:00.909Z,60.09
2023-01-21T09:57:08.503Z,60.12
2023-01-21T09:58:15.534Z,59.94
2023-01-21T09:59:21.047Z,59.87
2023-01-21T10:00:31.900Z,60.12
2023-01-21T10:01:33.945Z,60.46
2023-01-21T10:02:35.465Z,60.40
2023-01-21T10:03:42.966Z,60.67
2023-01-21T10:04:46.616Z,60.49
2023-01-21T10:05:59.833Z,60.79
2023-01-21T10:07:06.572Z,60.98
2023-01-21T10:08:26.617Z,60.89
2023-01-21T10:09:28.441Z,61.20
2023-01-21T10:10:33.468Z,61.33
2023-01-21T10:11:35.140Z,60.88
2023-01-21T10:12:39.722Z,60.14
2023-01-21T10:13:43.078Z,60.19
2023-01-21T10:15:00.114Z,60.08
2023-01-21T10:16:13.107Z,59.51
2023-01-21T10:17:33.248Z,59.33
2023-01-21T10:18:35.072Z,59.52
2023-01-21T10:19:40.757Z,59.44
2023-01-21T10:20:44.367Z,59.91
2023-01-21T10:21:51.117Z,59.94
2023-01-21T10:23:04.668Z,59.82
2023-01-21T10:24:13.173Z,59.89
2023-01-21T10:25:18.516Z,59.89
2023-01-21T10:26:20.276Z,60.00
2023-01-21T10:27:22.010Z,59.62
2023-01-21T10:28:24.249Z,59.23
2023-01-21T10:29:25.786Z,59.36
2023-01-21T10:30:37.522Z,59.38
2023-01-21T10:31:40.008Z,59.17
2023-01-21T10:32:41.577Z,59.26
2023-01-21T10:33:43.089Z,59.30
2023-01-21T10:34:48.201Z,58.83
2023-01-21T10:35:49.718Z,59.44
2023-01-21T10:36:53.829Z,58.75
2023-01-21T10:37:57.809Z,58.51
2023-01-21T10:39:05.447Z,58.52
2023-01-21T10:40:14.004Z,58.35
2023-01-21T10:41:34.068Z,58.32
2023-01-21T10:42:41.402Z,57.77
2023-01-21T10:43:45.693Z,57.86
2023-01-21T10:45:16.545Z,57.86
2023-01-21T10:46:24.605Z,58.35
2023-01-21T10:47:34.428Z,57.31
2023-01-21T10:48:38.524Z,58.00
2023-01-21T10:49:40.012Z,57.37
2023-01-21T10:50:47.744Z,57.69
2023-01-21T10:51:53.647Z,57.20
2023-01-21T10:53:04.430Z,57.12
2023-01-21T10:54:08.041Z,57.01
2023-01-21T10:55:31.237Z,56.73
2023-01-21T10:56:34.063Z,56.75
2023-01-21T10:57:39.903Z,57.06
2023-01-21T10:58:42.986Z,56.57
2023-01-21T10:59:44.500Z,56.68
2023-01-21T11:00:47.403Z,56.62
2023-01-21T11:01:53.372Z,56.97
2023-01-21T11:02:56.582Z,57.00
2023-01-21T11:04:04.612Z,56.64
2023-01-21T11:05:06.238Z,56.31
2023-01-21T11:06:09.209Z,56.40
2023-01-21T11:07:12.062Z,56.44
2023-01-21T11:08:20.465Z,56.54
2023-01-21T11:09:22.117Z,56.39
2023-01-21T11:10:24.857Z,56.67
2023-01-21T11:11:27.589Z,56.84
2023-01-21T11:12:30.648Z,57.05
2023-01-21T11:13:32.149Z,56.71
2023-01-21T11:14:33.937Z,57.25
2023-01-21T11:15:35.623Z,56.42
2023-01-21T11:16:40.763Z,56.47
2023-01-21T11:17:42.408Z,55.80
2023-01-21T11:18:43.894Z,56.16
2023-01-21T11:19:45.533Z,56.10
2023-01-21T11:20:47.040Z,56.52
2023-01-21T11:22:07.266Z,55.99
2023-01-21T11:23:24.504Z,56.47
2023-01-21T11:24:26.139Z,55.36
2023-01-21T11:25:43.292Z,55.11
2023-01-21T11:26:50.159Z,55.80
2023-01-21T11:27:51.635Z,56.12
2023-01-21T11:29:11.039Z,56.07
2023-01-21T11:30:48.671Z,56.33
2023-01-21T11:32:00.277Z,56.21
2023-01-21T11:33:12.092Z,56.50
2023-01-21T11:34:13.565Z,56.21
2023-01-21T11:35:24.378Z,56.72
2023-01-21T11:36:25.982Z,56.78
2023-01-21T11:37:27.808Z,56.65
2023-01-21T11:38:29.258Z,56.76
2023-01-21T11:39:34.887Z,57.26
2023-01-21T11:40:36.377Z,57.02
2023-01-21T11:41:37.857Z,57.54
2023-01-21T11:42:49.152Z,56.88
2023-01-21T11:43:51.525Z,56.71
2023-01-21T11:45:06.780Z,56.72
2023-01-21T11:46:21.577Z,57.25
2023-01-21T11:47:30.045Z,56.71
2023-01-21T11:48:31.594Z,56.82
2023-01-21T11:49:33.171Z,56.57
2023-01-21T11:50:35.263Z,56.84
2023-01-21T11:51:37.513Z,57.06
2023-01-21T11:52:39.016Z,57.21
2023-01-21T11:53:41.335Z,57.35
2023-01-21T11:54:42.916Z,57.50
2023-01-21T11:55:51.702Z,57.74
2023-01-21T11:56:56.437Z,57.62
2023-01-21T11:57:57.941Z,57.60
2023-01-21T11:58:59.436Z,57.83
2023-01-21T12:00:07.773Z,57.88
2023-01-21T12:01:19.873Z,57.98
2023-01-21T12:02:25.464Z,57.48
2023-01-21T12:03:28.905Z,57.84
2023-01-21T12:04:30.429Z,57.84
2023-01-21T12:05:32.708Z,57.84
2023-01-21T12:06:37.002Z,57.54
2023-01-21T12:07:39.513Z,58.01
2023-01-21T12:08:40.980Z,58.21
2023-01-21T12:09:42.497Z,58.54
2023-01-21T12:10:44.160Z,58.56
2023-01-21T12:11:47.289Z,58.53
2023-01-21T12:13:01.009Z,58.05
2023-01-21T12:14:17.613Z,57.84
2023-01-21T12:15:28.393Z,58.32
2023-01-21T12:16:32.706Z,58.59
2023-01-21T12:17:46.447Z,58.46
2023-01-21T12:19:07.016Z,58.59
2023-01-21T12:20:11.626Z,59.43
2023-01-21T12:21:16.145Z,59.08
2023-01-21T12:22:36.701Z,59.08
2023-01-21T12:23:57.890Z,58.98
2023-01-21T12:25:06.597Z,58.95
2023-01-21T12:26:10.791Z,59.03
2023-01-21T12:27:15.261Z,59.40
2023-01-21T12:28:23.185Z,59.36
2023-01-21T12:29:29.656Z,59.40
2023-01-21T12:30:46.439Z,59.99
2023-01-21T12:31:48.009Z,59.61
2023-01-21T12:32:50.578Z,59.72
2023-01-21T12:33:52.089Z,60.07
2023-01-21T12:35:02.386Z,59.66
2023-01-21T12:36:14.586Z,59.66
2023-01-21T12:37:18.801Z,59.74
2023-01-21T12:38:21.164Z,59.97
2023-01-21T12:39:29.055Z,59.95
2023-01-21T12:40:41.378Z,60.04
2023-01-21T12:41:43.097Z,59.87
2023-01-21T12:42:46.042Z,60.20
2023-01-21T12:43:51.109Z,60.02
2023-01-21T12:44:56.983Z,60.04
2023-01-21T12:46:01.260Z,59.84
2023-01-21T12:47:04.075Z,60.14
2023-01-21T12:48:24.020Z,59.97
2023-01-21T12:49:25.484Z,59.84
2023-01-21T12:50:27.446Z,59.93
2023-01-21T12:51:28.914Z,59.77
2023-01-21T12:52:33.595Z,59.79
2023-01-21T12:53:40.471Z,59.80
2023-01-21T12:54:44.585Z,60.04
2023-01-21T12:56:04.898Z,59.66
2023-01-21T12:57:09.813Z,60.16
2023-01-21T12:58:11.952Z,59.86
2023-01-21T12:59:15.283Z,59.54
2023-01-21T13:00:26.211Z,59.87
2023-01-21T13:01:46.259Z,60.09
2023-01-21T13:02:56.836Z,59.98
2023-01-21T13:03:58.299Z,60.15
2023-01-21T13:05:05.433Z,60.41
2023-01-21T13:06:09.218Z,60.57
2023-01-21T13:07:13.680Z,60.63
2023-01-21T13:08:33.894Z,60.01
2023-01-21T13:09:43.090Z,60.39
2023-01-21T13:10:46.226Z,60.21
2023-01-21T13:11:50.085Z,60.38
2023-01-21T13:12:53.664Z,60.08
2023-01-21T13:13:57.649Z,60.58
2023-01-21T13:14:59.120Z,60.39
2023-01-21T13:16:01.857Z,60.46
2023-01-21T13:17:04.816Z,60.41
2023-01-21T13:18:10.811Z,60.59
2023-01-21T13:19:12.765Z,60.59
2023-01-21T13:20:17.273Z,60.62
2023-01-21T13:21:22.645Z,60.68
2023-01-21T13:22:27.477Z,60.54
2023-01-21T13:23:34.333Z,60.72
2023-01-21T13:24:53.718Z,60.54
2023-01-21T13:26:10.759Z,60.66
2023-01-21T13:27:12.307Z,60.77
2023-01-21T13:28:15.372Z,60.60
2023-01-21T13:29:40.013Z,60.50
2023-01-21T13:30:42.018Z,60.86
2023-01-21T13:32:06.383Z,60.65
2023-01-21T13:33:20.027Z,60.88
2023-01-21T13:34:21.506Z,60.56
2023-01-21T13:35:29.014Z,60.85
2023-01-21T13:36:30.512Z,60.88
2023-01-21T13:37:49.846Z,60.91
2023-01-21T13:39:03.386Z,60.90
2023-01-21T13:40:13.860Z,61.24
2023-01-21T13:41:17.833Z,61.29
2023-01-21T13:42:23.781Z,61.16
2023-01-21T13:43:28.126Z,61.16